Time;durP1;ratioP1;P1;durP2;ratioP2;P2;SDS_P1;SDS_P2;PMS_P1;PMS_P2;Temp;Humidity;BMP_temperature;BMP_pressure;BME280_temperature;BME280_humidity;BME280_pressure;Samples;Min_cycle;Max_cycle;Signal;HPM_P1;HPM_P2
2023/03/04 00:00:07;;;;;;;14.10;2.40;;;5.90;99.90;;;;;;5040238;28;20037;-80
2023/03/04 00:02:33;;;;;;;13.93;2.38;;;5.90;99.90;;;;;;5056236;28;20049;-80
2023/03/04 00:04:59;;;;;;;6.50;1.63;;;5.90;99.90;;;;;;5052400;28;20025;-80
2023/03/04 00:07:24;;;;;;;10.35;2.15;;;5.90;99.90;;;;;;5056819;28;20036;-80
2023/03/04 00:09:50;;;;;;;10.18;2.30;;;5.90;99.90;;;;;;5044284;28;20025;-80
2023/03/04 00:12:16;;;;;;;6.85;1.92;;;5.90;99.90;;;;;;5056076;28;20048;-80
2023/03/04 00:14:41;;;;;;;11.82;2.20;;;5.90;99.90;;;;;;5055538;28;20057;-80
2023/03/04 00:17:07;;;;;;;9.30;2.00;;;5.90;99.90;;;;;;5054253;28;20029;-80
2023/03/04 00:19:34;;;;;;;13.68;2.65;;;5.90;99.90;;;;;;5053852;28;20152;-80
2023/03/04 00:22:00;;;;;;;7.40;1.98;;;5.90;99.90;;;;;;5051099;28;20064;-80
2023/03/04 00:24:26;;;;;;;6.93;2.67;;;5.90;99.90;;;;;;5042063;28;20041;-80
2023/03/04 00:26:52;;;;;;;12.50;2.20;;;5.80;99.90;;;;;;5054669;28;20039;-80
2023/03/04 00:29:18;;;;;;;12.55;2.85;;;5.80;99.90;;;;;;5049351;28;20029;-80
2023/03/04 00:31:43;;;;;;;10.05;2.15;;;5.80;99.90;;;;;;5025302;28;20042;-80
2023/03/04 00:34:09;;;;;;;10.07;2.50;;;5.90;99.90;;;;;;5035679;28;20060;-80
2023/03/04 00:36:35;;;;;;;11.88;2.40;;;5.90;99.90;;;;;;5047467;28;20498;-80
2023/03/04 00:39:00;;;;;;;10.07;2.20;;;5.80;99.90;;;;;;5056545;28;20040;-80
2023/03/04 00:41:26;;;;;;;14.02;2.88;;;5.80;99.90;;;;;;5042299;28;20044;-80
2023/03/04 00:43:51;;;;;;;11.60;2.63;;;5.90;99.90;;;;;;5036246;28;20120;-80
2023/03/04 00:46:17;;;;;;;12.68;3.08;;;5.80;99.90;;;;;;5054149;28;20033;-80
2023/03/04 00:48:43;;;;;;;11.20;2.72;;;5.80;99.90;;;;;;5052093;28;20099;-79
2023/03/04 00:51:08;;;;;;;7.55;2.22;;;5.80;99.90;;;;;;5050363;28;20040;-79
2023/03/04 00:53:34;;;;;;;9.93;2.58;;;5.90;99.90;;;;;;5024024;28;20442;-79
2023/03/04 00:56:00;;;;;;;14.25;2.50;;;5.80;99.90;;;;;;5040433;28;20044;-82
2023/03/04 00:58:26;;;;;;;12.43;2.30;;;5.80;99.90;;;;;;5024780;28;20042;-80
2023/03/04 01:00:51;;;;;;;12.95;2.25;;;5.80;99.90;;;;;;5051362;28;20048;-80
2023/03/04 01:03:17;;;;;;;9.85;2.70;;;5.80;99.90;;;;;;5046643;28;20411;-81
2023/03/04 01:05:43;;;;;;;10.65;2.30;;;5.90;99.90;;;;;;5038106;28;20518;-81
2023/03/04 01:08:09;;;;;;;9.60;2.10;;;5.80;99.90;;;;;;5044311;28;20025;-79
2023/03/04 01:10:34;;;;;;;11.60;2.33;;;5.80;99.90;;;;;;5056250;28;20118;-79
2023/03/04 01:13:00;;;;;;;14.18;2.80;;;5.80;99.90;;;;;;5054582;28;20040;-79
2023/03/04 01:15:26;;;;;;;8.70;2.25;;;5.80;99.90;;;;;;5037440;28;20064;-79
2023/03/04 01:17:52;;;;;;;10.20;2.30;;;5.80;99.90;;;;;;5053247;28;20076;-79
2023/03/04 01:20:18;;;;;;;10.82;2.35;;;5.80;99.90;;;;;;5055756;28;20044;-79
2023/03/04 01:22:44;;;;;;;9.95;2.03;;;5.80;99.90;;;;;;5046885;28;20076;-79
2023/03/04 01:25:10;;;;;;;10.52;2.30;;;5.90;99.90;;;;;;5051018;28;20056;-79
2023/03/04 01:27:35;;;;;;;12.57;2.08;;;5.80;99.90;;;;;;5036245;28;20033;-79
2023/03/04 01:30:01;;;;;;;8.45;2.05;;;5.80;99.90;;;;;;5022179;28;20033;-78
2023/03/04 01:32:27;;;;;;;9.57;2.33;;;5.80;99.90;;;;;;5049012;28;20564;-79
2023/03/04 01:34:52;;;;;;;12.40;2.33;;;5.80;99.90;;;;;;5039524;28;20033;-79
2023/03/04 01:37:18;;;;;;;10.32;2.40;;;5.80;99.90;;;;;;5035476;28;20055;-79
2023/03/04 01:39:44;;;;;;;8.38;2.28;;;5.80;99.90;;;;;;5038410;28;20033;-79
2023/03/04 01:42:19;;;;;;;8.65;2.35;;;5.80;99.90;;;;;;5045512;28;20041;-78
2023/03/04 01:44:46;;;;;;;10.45;2.40;;;5.80;99.90;;;;;;5050488;28;20053;-79
2023/03/04 01:47:12;;;;;;;7.15;2.25;;;5.80;99.90;;;;;;5037436;28;20033;-79
2023/03/04 01:49:38;;;;;;;9.95;2.22;;;5.70;99.90;;;;;;5054028;28;20040;-79
2023/03/04 01:52:10;;;;;;;11.73;2.38;;;5.70;99.90;;;;;;5047700;28;20065;-79
2023/03/04 01:54:36;;;;;;;7.10;2.42;;;5.80;99.90;;;;;;5050203;28;20075;-80
2023/03/04 01:57:17;;;;;;;10.45;2.15;;;5.70;99.90;;;;;;5027008;28;20037;-79
2023/03/04 02:02:11;;;;;;;9.15;2.45;;;5.80;99.90;;;;;;5042966;22;20041;-36
2023/03/04 02:04:37;;;;;;;10.55;2.53;;;5.80;99.90;;;;;;5046816;28;20129;-36
2023/03/04 02:07:04;;;;;;;12.48;2.63;;;5.70;99.90;;;;;;5043225;28;20068;-35
2023/03/04 02:09:31;;;;;;;9.85;2.50;;;5.70;99.90;;;;;;5045874;28;20051;-33
2023/03/04 02:11:57;;;;;;;13.38;2.13;;;5.70;99.90;;;;;;5066708;28;20492;-36
2023/03/04 02:14:23;;;;;;;15.93;2.45;;;5.70;99.90;;;;;;5050926;28;20141;-35
2023/03/04 02:16:49;;;;;;;12.20;2.55;;;5.70;99.90;;;;;;5044542;28;20037;-34
2023/03/04 02:19:27;;;;;;;6.47;2.33;;;5.70;99.90;;;;;;5046338;28;20464;-35
2023/03/04 02:21:53;;;;;;;8.75;2.50;;;5.70;99.90;;;;;;5034448;28;20500;-35
2023/03/04 02:24:22;;;;;;;10.70;2.47;;;5.70;99.90;;;;;;5040134;28;20037;-36
2023/03/04 02:26:47;;;;;;;8.60;2.63;;;5.70;99.90;;;;;;5040199;28;20033;-35
2023/03/04 02:29:15;;;;;;;9.05;2.03;;;5.70;99.90;;;;;;5047251;28;20033;-35
2023/03/04 02:31:47;;;;;;;12.73;2.25;;;5.70;99.90;;;;;;5041367;28;20036;-35
2023/03/04 02:34:17;;;;;;;8.90;2.38;;;5.70;99.90;;;;;;5043458;28;20044;-35
2023/03/04 02:36:44;;;;;;;10.63;2.50;;;5.70;99.90;;;;;;5043613;28;20155;-36
2023/03/04 02:39:33;;;;;;;6.10;1.95;;;5.70;99.90;;;;;;5040452;28;20072;-35
2023/03/04 02:42:00;;;;;;;6.72;1.65;;;5.70;99.90;;;;;;5040978;28;20071;-35
2023/03/04 02:44:33;;;;;;;6.80;2.05;;;5.70;99.90;;;;;;5038830;28;20048;-36
2023/03/04 02:46:59;;;;;;;8.97;2.10;;;5.70;99.90;;;;;;5041889;28;20532;-36
2023/03/04 02:49:28;;;;;;;10.60;2.28;;;5.70;99.90;;;;;;5042319;28;20041;-34
2023/03/04 02:52:04;;;;;;;10.38;2.20;;;5.70;99.90;;;;;;5039653;28;20025;-35
2023/03/04 02:54:30;;;;;;;10.60;2.30;;;5.70;99.90;;;;;;5036681;28;20178;-36
2023/03/04 02:56:59;;;;;;;6.70;1.90;;;5.70;99.90;;;;;;5038528;28;20123;-36
2023/03/04 02:59:25;;;;;;;12.13;2.92;;;5.70;99.90;;;;;;5035062;28;20041;-36
2023/03/04 03:01:50;;;;;;;8.82;2.47;;;5.70;99.90;;;;;;5042506;28;20164;-35
2023/03/04 03:04:17;;;;;;;8.43;2.40;;;5.70;99.90;;;;;;5036408;28;20037;-34
2023/03/04 03:06:43;;;;;;;6.88;2.20;;;5.70;99.90;;;;;;5049525;28;20033;-35
2023/03/04 03:09:08;;;;;;;11.63;2.53;;;5.70;99.90;;;;;;5041561;28;20049;-35
2023/03/04 03:11:34;;;;;;;11.50;2.30;;;5.70;99.90;;;;;;5042822;28;20051;-35
2023/03/04 03:14:00;;;;;;;9.75;1.95;;;5.60;99.90;;;;;;5035804;28;20407;-36
2023/03/04 03:16:26;;;;;;;9.48;2.17;;;5.60;99.90;;;;;;5043337;28;20040;-36
2023/03/04 03:18:51;;;;;;;11.82;2.28;;;5.60;99.90;;;;;;5043351;28;20041;-35
2023/03/04 03:21:17;;;;;;;11.05;2.20;;;5.60;99.90;;;;;;5047099;28;20075;-37
2023/03/04 03:23:43;;;;;;;14.45;2.30;;;5.60;99.90;;;;;;5050292;28;20083;-36
2023/03/04 03:26:09;;;;;;;7.25;1.98;;;5.60;99.90;;;;;;5043507;28;20120;-35
2023/03/04 03:28:35;;;;;;;6.50;1.85;;;5.60;99.90;;;;;;5044638;28;20490;-33
2023/03/04 03:31:00;;;;;;;8.57;1.90;;;5.60;99.90;;;;;;5044620;28;20494;-33
2023/03/04 03:33:26;;;;;;;10.85;1.88;;;5.60;99.90;;;;;;5056326;28;20095;-34
2023/03/04 03:35:52;;;;;;;7.05;2.08;;;5.60;99.90;;;;;;5052803;28;20390;-33
2023/03/04 03:38:17;;;;;;;8.05;2.03;;;5.60;99.90;;;;;;5052382;28;20032;-34
2023/03/04 03:40:43;;;;;;;8.65;1.80;;;5.60;99.90;;;;;;5056070;28;20095;-35
2023/03/04 03:43:09;;;;;;;14.27;3.47;;;5.50;99.90;;;;;;5048721;28;20124;-34
2023/03/04 03:45:34;;;;;;;11.30;2.05;;;5.50;99.90;;;;;;5039686;28;20394;-34
2023/03/04 03:48:00;;;;;;;8.40;2.05;;;5.60;99.90;;;;;;5046983;28;20025;-33
2023/03/04 03:50:27;;;;;;;9.77;2.00;;;5.60;99.90;;;;;;5040945;28;20037;-33
2023/03/04 03:52:53;;;;;;;11.77;2.17;;;5.50;99.90;;;;;;5054127;28;20040;-33
2023/03/04 03:55:19;;;;;;;8.93;1.70;;;5.50;99.90;;;;;;5050246;28;20060;-33
2023/03/04 03:57:45;;;;;;;7.13;2.00;;;5.60;99.90;;;;;;5044326;28;20599;-33
2023/03/04 04:00:11;;;;;;;9.93;2.28;;;5.50;99.90;;;;;;5049051;28;20033;-33
2023/03/04 04:02:37;;;;;;;9.38;2.25;;;5.50;99.90;;;;;;5059163;28;20123;-33
2023/03/04 04:05:03;;;;;;;7.85;2.88;;;5.50;99.90;;;;;;5048187;28;20068;-34
2023/03/04 04:07:29;;;;;;;9.02;2.08;;;5.50;99.90;;;;;;5038218;28;20046;-34
2023/03/04 04:09:54;;;;;;;10.50;1.90;;;5.50;99.90;;;;;;5036227;28;20509;-34
2023/03/04 04:12:20;;;;;;;12.65;2.08;;;5.60;99.90;;;;;;5043775;28;20087;-34
2023/03/04 04:14:46;;;;;;;5.78;1.95;;;5.50;99.90;;;;;;5036335;28;20044;-33
2023/03/04 04:17:12;;;;;;;8.70;1.92;;;5.50;99.90;;;;;;5049410;28;20037;-33
2023/03/04 04:19:39;;;;;;;11.45;2.35;;;5.50;99.90;;;;;;5041993;28;20037;-35
2023/03/04 04:22:07;;;;;;;13.95;2.25;;;5.50;99.90;;;;;;5046811;28;20086;-34
2023/03/04 04:24:33;;;;;;;11.32;2.90;;;5.50;99.90;;;;;;5045587;28;20037;-36
2023/03/04 04:27:00;;;;;;;12.05;2.42;;;5.50;99.90;;;;;;5045843;28;20068;-36
2023/03/04 04:29:25;;;;;;;8.52;2.40;;;5.50;99.90;;;;;;5040108;28;20390;-36
2023/03/04 04:31:51;;;;;;;9.77;2.33;;;5.50;99.90;;;;;;5042899;28;20038;-34
2023/03/04 04:34:17;;;;;;;9.63;2.47;;;5.50;99.90;;;;;;5047532;28;20055;-34
2023/03/04 04:36:43;;;;;;;12.10;2.03;;;5.50;99.90;;;;;;5037697;28;20041;-38
2023/03/04 04:39:09;;;;;;;6.18;2.22;;;5.50;99.90;;;;;;5049176;28;20050;-34
2023/03/04 04:41:40;;;;;;;8.00;2.40;;;5.50;99.90;;;;;;5036312;28;20120;-35
2023/03/04 04:44:06;;;;;;;10.75;2.70;;;5.50;99.90;;;;;;5062936;28;20044;-35
2023/03/04 04:46:32;;;;;;;9.93;2.63;;;5.50;99.90;;;;;;5050969;28;20044;-35
2023/03/04 04:48:58;;;;;;;9.20;2.20;;;5.50;99.90;;;;;;5037117;28;20041;-36
2023/03/04 04:51:23;;;;;;;7.05;2.22;;;5.50;99.90;;;;;;5038948;28;20041;-34
2023/03/04 04:53:49;;;;;;;9.93;2.75;;;5.50;99.90;;;;;;5048673;28;20045;-32
2023/03/04 04:56:17;;;;;;;10.13;2.45;;;5.50;99.90;;;;;;5037548;28;20037;-33
2023/03/04 04:58:44;;;;;;;6.10;2.00;;;5.40;99.90;;;;;;5069790;28;20060;-33
2023/03/04 05:01:10;;;;;;;12.20;2.40;;;5.40;99.90;;;;;;5062540;28;20037;-33
2023/03/04 05:03:36;;;;;;;5.32;2.15;;;5.40;99.90;;;;;;5035638;28;20406;-37
2023/03/04 05:06:04;;;;;;;13.52;2.67;;;5.40;99.90;;;;;;5039727;28;20044;-36
2023/03/04 05:08:29;;;;;;;10.52;2.22;;;5.40;99.90;;;;;;5048006;28;20072;-32
2023/03/04 05:10:55;;;;;;;8.90;2.40;;;5.40;99.90;;;;;;5032492;28;20132;-31
2023/03/04 05:13:21;;;;;;;12.48;2.45;;;5.50;99.90;;;;;;5034730;28;20044;-32
2023/03/04 05:15:46;;;;;;;9.15;2.53;;;5.40;99.90;;;;;;5040562;28;20410;-34
2023/03/04 05:18:12;;;;;;;10.23;2.58;;;5.40;99.90;;;;;;5043304;28;20486;-35
2023/03/04 05:20:38;;;;;;;12.32;2.42;;;5.40;99.90;;;;;;5032309;28;20041;-31
2023/03/04 05:23:03;;;;;;;11.35;2.83;;;5.40;99.90;;;;;;5055078;28;20490;-31
2023/03/04 05:25:29;;;;;;;10.70;2.28;;;5.40;99.90;;;;;;5053197;28;20482;-32
2023/03/04 05:27:55;;;;;;;12.88;2.00;;;5.40;99.90;;;;;;5048174;28;20075;-32
2023/03/04 05:30:21;;;;;;;11.27;2.10;;;5.30;99.90;;;;;;5037358;28;20041;-33
2023/03/04 05:32:46;;;;;;;14.77;2.58;;;5.40;99.90;;;;;;5050856;28;20073;-33
2023/03/04 05:35:12;;;;;;;9.95;2.40;;;5.30;99.90;;;;;;5050304;28;20074;-34
2023/03/04 05:37:38;;;;;;;6.57;2.10;;;5.30;99.90;;;;;;5043790;28;20036;-33
2023/03/04 05:40:04;;;;;;;8.30;2.30;;;5.30;99.90;;;;;;5050493;28;20033;-33
2023/03/04 05:42:30;;;;;;;11.32;2.35;;;5.30;99.90;;;;;;5031953;28;20029;-34
2023/03/04 05:44:55;;;;;;;11.05;2.47;;;5.30;99.90;;;;;;5038422;28;20041;-34
2023/03/04 05:47:21;;;;;;;6.28;2.05;;;5.30;99.90;;;;;;5036133;28;20044;-35
2023/03/04 05:49:47;;;;;;;9.57;2.42;;;5.30;99.90;;;;;;5045997;28;20038;-35
2023/03/04 05:52:13;;;;;;;10.73;2.13;;;5.30;99.90;;;;;;5046089;28;20397;-35
2023/03/04 05:54:38;;;;;;;9.02;2.38;;;5.30;99.90;;;;;;5043860;28;20473;-34
2023/03/04 05:57:04;;;;;;;8.18;2.47;;;5.30;99.90;;;;;;5041734;28;20043;-34
2023/03/04 05:59:30;;;;;;;8.23;2.60;;;5.30;99.90;;;;;;5041116;28;20038;-36
2023/03/04 06:01:55;;;;;;;10.10;2.35;;;5.30;99.90;;;;;;5048020;28;20127;-35
2023/03/04 06:04:21;;;;;;;8.68;2.45;;;5.30;99.90;;;;;;5044271;28;20033;-34
2023/03/04 06:06:47;;;;;;;6.97;2.10;;;5.30;99.90;;;;;;5045051;28;20069;-34
2023/03/04 06:09:13;;;;;;;8.20;2.28;;;5.30;99.90;;;;;;5048144;28;20502;-34
2023/03/04 06:11:39;;;;;;;4.28;2.03;;;5.30;99.90;;;;;;5047980;28;20044;-34
2023/03/04 06:14:05;;;;;;;5.82;2.03;;;5.30;99.90;;;;;;5041070;28;20033;-35
2023/03/04 06:16:31;;;;;;;6.15;1.80;;;5.30;99.90;;;;;;5044207;28;20457;-32
2023/03/04 06:18:59;;;;;;;6.72;2.03;;;5.30;99.90;;;;;;5049191;28;20074;-33
2023/03/04 06:21:28;;;;;;;6.72;1.92;;;5.30;99.90;;;;;;5044196;28;20075;-34
2023/03/04 06:23:54;;;;;;;9.05;2.08;;;5.30;99.90;;;;;;5045162;28;20486;-35
2023/03/04 06:26:20;;;;;;;7.63;1.65;;;5.30;99.90;;;;;;5053266;28;20108;-33
2023/03/04 06:28:45;;;;;;;11.02;2.38;;;5.30;99.90;;;;;;5048519;28;20076;-33
2023/03/04 06:31:11;;;;;;;9.90;2.70;;;5.30;99.90;;;;;;5047929;28;20037;-33
2023/03/04 06:33:37;;;;;;;8.52;1.88;;;5.30;99.90;;;;;;5049345;28;20422;-33
2023/03/04 06:36:03;;;;;;;4.22;1.80;;;5.20;99.90;;;;;;5049379;28;20090;-33
2023/03/04 06:38:28;;;;;;;7.32;2.05;;;5.30;99.90;;;;;;5049626;28;20149;-34
2023/03/04 06:40:54;;;;;;;4.53;1.80;;;5.20;99.90;;;;;;5046363;28;20025;-33
2023/03/04 06:43:20;;;;;;;6.40;2.08;;;5.20;99.90;;;;;;5049204;28;20436;-33
2023/03/04 06:45:46;;;;;;;7.22;1.83;;;5.30;99.90;;;;;;5041763;28;20117;-34
2023/03/04 06:48:12;;;;;;;6.53;2.15;;;5.30;99.90;;;;;;5030418;28;20090;-34
2023/03/04 06:50:41;;;;;;;10.85;2.13;;;5.30;99.90;;;;;;5052997;28;20477;-33
2023/03/04 06:53:07;;;;;;;5.43;2.10;;;5.40;99.90;;;;;;5050482;28;20490;-33
2023/03/04 06:55:32;;;;;;;7.45;1.98;;;5.30;99.90;;;;;;5051382;28;20033;-33
2023/03/04 06:57:58;;;;;;;6.40;1.98;;;5.30;99.90;;;;;;5048701;28;20037;-33
2023/03/04 07:00:24;;;;;;;8.15;2.25;;;5.30;99.90;;;;;;5048934;28;20090;-33
2023/03/04 07:02:50;;;;;;;8.93;1.95;;;5.40;99.90;;;;;;5048669;28;20055;-34
2023/03/04 07:05:16;;;;;;;5.88;1.77;;;5.40;99.90;;;;;;5051941;28;20041;-34
2023/03/04 07:07:41;;;;;;;8.10;2.15;;;5.50;99.90;;;;;;5052966;28;20094;-34
2023/03/04 07:10:09;;;;;;;6.05;1.65;;;5.50;99.90;;;;;;5052672;28;20041;-33
2023/03/04 07:12:56;;;;;;;5.72;2.00;;;5.50;99.90;;;;;;5051450;28;20037;-36
2023/03/04 07:15:22;;;;;;;5.30;1.95;;;5.60;99.90;;;;;;5029084;28;20041;-35
2023/03/04 07:17:48;;;;;;;6.45;1.70;;;5.60;99.90;;;;;;5022862;28;20083;-34
2023/03/04 07:20:14;;;;;;;5.00;1.73;;;5.60;99.90;;;;;;5030228;28;20030;-35
2023/03/04 07:22:39;;;;;;;4.35;1.83;;;5.70;99.90;;;;;;5018222;28;20567;-34
2023/03/04 07:25:06;;;;;;;4.38;1.55;;;5.80;99.90;;;;;;5021868;28;20033;-34
2023/03/04 07:27:32;;;;;;;5.60;1.55;;;5.80;99.90;;;;;;5029670;28;20395;-35
2023/03/04 07:29:59;;;;;;;6.70;1.80;;;5.90;99.90;;;;;;5023536;28;20026;-35
2023/03/04 07:32:25;;;;;;;6.18;2.03;;;5.90;99.90;;;;;;5019666;28;20060;-35
2023/03/04 07:34:51;;;;;;;4.25;1.20;;;6.00;99.90;;;;;;5021910;28;20112;-34
2023/03/04 07:37:17;;;;;;;3.40;1.30;;;6.00;99.90;;;;;;5022450;28;20106;-34
2023/03/04 07:39:42;;;;;;;4.55;1.40;;;6.10;99.90;;;;;;5016686;28;20899;-34
2023/03/04 07:42:09;;;;;;;1.92;1.30;;;6.10;99.90;;;;;;5019867;28;20045;-35
2023/03/04 07:44:35;;;;;;;3.42;1.20;;;6.20;99.90;;;;;;5019776;28;20037;-35
2023/03/04 07:47:00;;;;;;;5.55;1.73;;;6.30;99.90;;;;;;5022482;28;20048;-35
2023/03/04 07:49:26;;;;;;;6.93;1.70;;;6.30;99.90;;;;;;5022225;28;20038;-35
2023/03/04 07:51:52;;;;;;;7.05;1.50;;;6.30;99.90;;;;;;5020937;28;20033;-36
2023/03/04 07:54:19;;;;;;;5.05;1.30;;;6.40;99.90;;;;;;5020596;28;20041;-35
2023/03/04 07:56:44;;;;;;;2.50;1.15;;;6.40;99.90;;;;;;5018601;28;20042;-35
2023/03/04 07:59:10;;;;;;;3.85;1.40;;;6.50;99.90;;;;;;5023408;28;20040;-35
2023/03/04 08:01:37;;;;;;;6.03;1.65;;;6.60;99.90;;;;;;5018762;28;20043;-35
2023/03/04 08:04:04;;;;;;;3.55;1.48;;;6.60;99.90;;;;;;5017968;28;20117;-35
2023/03/04 08:06:30;;;;;;;5.32;1.27;;;6.70;99.90;;;;;;5024235;28;20034;-35
2023/03/04 08:09:05;;;;;;;6.47;1.95;;;6.90;99.90;;;;;;5026910;28;20033;-35
2023/03/04 08:11:32;;;;;;;6.20;1.67;;;7.10;99.90;;;;;;5029515;28;20049;-36
2023/03/04 08:13:58;;;;;;;4.10;1.52;;;7.30;99.90;;;;;;5019363;28;20033;-35
2023/03/04 08:16:24;;;;;;;4.32;1.42;;;7.30;99.90;;;;;;5029985;28;20037;-35
2023/03/04 08:18:52;;;;;;;4.97;1.30;;;7.40;99.90;;;;;;5027923;28;20037;-37
2023/03/04 08:21:19;;;;;;;5.13;1.40;;;7.40;99.90;;;;;;5019389;28;20029;-35
2023/03/04 08:23:46;;;;;;;3.47;1.73;;;7.40;99.90;;;;;;5021101;28;20080;-36
2023/03/04 08:26:15;;;;;;;6.32;1.58;;;7.30;99.90;;;;;;5031270;28;21039;-36
2023/03/04 08:28:41;;;;;;;3.10;1.30;;;7.20;99.90;;;;;;5021277;28;20490;-35
2023/03/04 08:31:07;;;;;;;4.05;1.27;;;7.10;99.90;;;;;;5032173;28;20482;-35
2023/03/04 08:33:33;;;;;;;4.90;1.40;;;7.00;99.90;;;;;;5017920;28;20038;-35
2023/03/04 08:35:59;;;;;;;4.82;1.38;;;6.90;99.90;;;;;;5024733;28;20038;-35
2023/03/04 08:38:25;;;;;;;13.30;1.95;;;6.90;99.90;;;;;;5033373;28;20088;-33
2023/03/04 08:40:55;;;;;;;5.70;1.50;;;6.90;99.90;;;;;;5028840;28;20070;-33
2023/03/04 08:43:21;;;;;;;5.35;1.60;;;6.80;99.90;;;;;;5039064;28;20399;-34
2023/03/04 08:45:47;;;;;;;6.70;1.50;;;6.80;99.90;;;;;;5006554;28;20060;-34
2023/03/04 08:48:13;;;;;;;8.05;2.45;;;6.80;99.90;;;;;;5034533;28;20037;-33
2023/03/04 08:50:39;;;;;;;6.35;2.25;;;6.90;99.90;;;;;;5033927;28;20402;-33
2023/03/04 08:53:05;;;;;;;7.22;1.90;;;7.00;99.90;;;;;;5019191;28;20044;-34
2023/03/04 08:55:30;;;;;;;10.38;2.20;;;7.20;99.90;;;;;;5033339;28;20042;-35
2023/03/04 08:57:56;;;;;;;6.43;1.80;;;7.50;99.90;;;;;;5025503;28;20104;-35
2023/03/04 09:00:22;;;;;;;8.73;2.05;;;8.20;99.90;;;;;;5034965;28;20045;-36
2023/03/04 09:02:48;;;;;;;9.95;2.42;;;8.60;99.90;;;;;;5029361;28;20046;-36
2023/03/04 09:05:14;;;;;;;8.95;1.70;;;8.80;99.90;;;;;;5031445;28;20430;-35
2023/03/04 09:07:40;;;;;;;9.68;2.05;;;9.00;99.90;;;;;;5028955;28;20028;-35
2023/03/04 09:10:06;;;;;;;8.20;1.58;;;9.00;99.90;;;;;;5025232;28;20034;-35
2023/03/04 09:12:31;;;;;;;8.48;2.30;;;8.90;99.90;;;;;;5019775;28;20037;-35
2023/03/04 09:14:58;;;;;;;11.27;2.30;;;8.70;99.90;;;;;;5026480;28;20033;-38
2023/03/04 09:17:23;;;;;;;9.35;2.30;;;8.60;99.90;;;;;;5013766;28;20038;-38
2023/03/04 09:19:49;;;;;;;7.50;2.00;;;8.40;99.90;;;;;;5022121;28;20037;-34
2023/03/04 09:22:15;;;;;;;7.25;2.10;;;8.20;99.90;;;;;;5008417;28;20037;-36
2023/03/04 09:24:40;;;;;;;6.32;2.15;;;8.00;99.90;;;;;;5019170;28;20565;-34
2023/03/04 09:27:08;;;;;;;10.75;2.30;;;7.90;99.90;;;;;;5014341;28;20045;-34
2023/03/04 09:29:33;;;;;;;8.00;2.50;;;7.80;99.90;;;;;;5024950;28;20060;-35
2023/03/04 09:31:59;;;;;;;9.70;2.33;;;7.80;99.90;;;;;;5021519;28;20394;-35
2023/03/04 09:34:25;;;;;;;12.23;2.45;;;7.80;99.90;;;;;;5024686;28;20037;-35
2023/03/04 09:36:50;;;;;;;7.57;1.83;;;7.90;99.90;;;;;;5021559;28;20569;-36
2023/03/04 09:39:16;;;;;;;11.93;1.98;;;8.00;99.90;;;;;;5021931;28;20038;-36
2023/03/04 09:41:51;;;;;;;10.38;1.90;;;8.10;99.90;;;;;;5022579;28;20091;-36
2023/03/04 09:44:31;;;;;;;8.18;1.63;;;8.20;99.90;;;;;;5029486;28;20037;-37
2023/03/04 09:47:07;;;;;;;10.93;2.42;;;8.30;99.90;;;;;;5023311;28;20056;-36
2023/03/04 09:49:33;;;;;;;11.30;2.55;;;8.30;99.90;;;;;;5016914;28;20364;-36
2023/03/04 09:52:08;;;;;;;8.95;2.22;;;8.40;99.90;;;;;;5019852;28;20403;-35
2023/03/04 09:54:51;;;;;;;7.50;1.75;;;8.30;99.90;;;;;;5018468;28;20041;-36
2023/03/04 09:57:27;;;;;;;13.15;2.50;;;8.30;99.90;;;;;;5018237;28;20041;-36
2023/03/04 10:00:11;;;;;;;10.27;2.05;;;8.20;99.90;;;;;;5019741;28;20040;-36
2023/03/04 10:02:40;;;;;;;9.93;2.33;;;8.20;99.90;;;;;;5014546;28;20065;-36
2023/03/04 10:05:11;;;;;;;10.25;2.67;;;8.20;99.90;;;;;;5022482;28;20564;-34
2023/03/04 10:07:42;;;;;;;9.35;2.40;;;8.20;99.90;;;;;;5019043;28;20033;-34
2023/03/04 10:10:24;;;;;;;10.70;2.63;;;8.20;99.90;;;;;;5045171;28;20037;-33
2023/03/04 10:12:52;;;;;;;13.70;3.30;;;8.10;99.90;;;;;;5013388;28;20054;-34
2023/03/04 10:15:23;;;;;;;11.18;2.65;;;8.20;99.90;;;;;;5023101;28;20537;-33
2023/03/04 10:18:02;;;;;;;12.48;2.70;;;8.10;99.90;;;;;;5020303;28;20091;-33
2023/03/04 10:20:42;;;;;;;13.85;3.00;;;8.10;99.90;;;;;;5024637;28;20125;-36
2023/03/04 10:23:15;;;;;;;10.48;2.90;;;8.00;99.90;;;;;;5025030;28;20084;-36
2023/03/04 10:25:45;;;;;;;11.43;2.72;;;8.00;99.90;;;;;;5020985;28;20038;-36
2023/03/04 10:28:22;;;;;;;10.75;2.90;;;8.10;99.90;;;;;;5019631;28;20068;-36
2023/03/04 10:30:47;;;;;;;13.00;2.78;;;8.20;99.90;;;;;;5042836;28;20029;-36
2023/03/04 10:33:19;;;;;;;10.82;2.80;;;8.30;99.90;;;;;;5031568;28;20178;-36
2023/03/04 10:35:54;;;;;;;10.23;2.10;;;8.40;99.90;;;;;;5035139;28;20046;-35
2023/03/04 10:38:21;;;;;;;8.50;2.08;;;8.50;99.90;;;;;;5018089;28;20085;-35
2023/03/04 10:40:47;;;;;;;7.55;2.45;;;8.60;99.90;;;;;;5028689;28;20037;-36
2023/03/04 10:43:15;;;;;;;14.68;2.95;;;8.50;99.90;;;;;;5033944;28;20045;-36
2023/03/04 10:45:41;;;;;;;7.55;2.30;;;8.50;99.90;;;;;;5022020;28;20030;-36
2023/03/04 10:48:18;;;;;;;9.65;2.60;;;8.40;99.90;;;;;;5026180;28;20090;-36
2023/03/04 10:50:44;;;;;;;12.30;2.17;;;8.30;99.90;;;;;;5018942;28;20041;-36
2023/03/04 10:53:32;;;;;;;9.68;2.67;;;8.10;99.90;;;;;;5027905;28;20175;-36
2023/03/04 10:55:58;;;;;;;10.05;3.13;;;8.00;99.90;;;;;;5025196;28;20520;-36
2023/03/04 10:58:24;;;;;;;6.07;1.63;;;8.00;99.90;;;;;;5023927;28;20164;-37
2023/03/04 11:01:02;;;;;;;7.72;1.67;;;8.00;99.90;;;;;;5023568;28;20068;-36
2023/03/04 11:03:30;;;;;;;7.45;1.60;;;8.00;99.90;;;;;;5032275;28;20172;-36
2023/03/04 11:06:10;;;;;;;6.57;1.45;;;8.00;99.90;;;;;;5031664;28;20112;-35
2023/03/04 11:08:40;;;;;;;6.95;1.23;;;8.10;99.90;;;;;;5018171;28;20037;-35
2023/03/04 11:11:21;;;;;;;7.03;1.52;;;8.10;99.90;;;;;;5016308;28;20034;-35
2023/03/04 11:13:54;;;;;;;5.22;1.27;;;8.30;99.90;;;;;;5026649;28;20041;-33
2023/03/04 11:16:29;;;;;;;6.78;1.48;;;8.40;99.90;;;;;;5055345;28;20167;-34
2023/03/04 11:19:14;;;;;;;4.68;1.13;;;8.50;99.90;;;;;;5027996;28;20033;-36
2023/03/04 11:21:40;;;;;;;4.47;1.20;;;8.60;99.90;;;;;;5036705;28;20049;-34
2023/03/04 11:24:16;;;;;;;5.55;1.52;;;8.70;99.90;;;;;;5040191;28;20397;-35
2023/03/04 11:27:00;;;;;;;12.10;4.72;;;8.70;99.90;;;;;;5025710;28;20030;-34
2023/03/04 11:29:37;;;;;;;9.30;3.00;;;8.70;99.90;;;;;;5033299;28;20040;-34
2023/03/04 11:32:21;;;;;;;10.23;2.80;;;8.60;99.90;;;;;;5027285;28;20525;-35
2023/03/04 11:34:58;;;;;;;8.90;2.33;;;8.50;99.90;;;;;;5017181;28;20033;-36
2023/03/04 11:37:46;;;;;;;11.77;2.30;;;8.50;99.90;;;;;;5024965;28;20088;-36
2023/03/04 11:40:17;;;;;;;8.48;2.78;;;8.50;99.90;;;;;;5024995;28;20440;-34
2023/03/04 11:42:58;;;;;;;6.57;1.90;;;8.60;99.90;;;;;;5037126;28;20053;-34
2023/03/04 11:45:30;;;;;;;11.00;3.50;;;8.60;99.90;;;;;;5024391;28;20491;-36
2023/03/04 11:48:50;;;;;;;10.07;2.03;;;8.70;99.90;;;;;;5025472;28;20399;-36
2023/03/04 11:51:27;;;;;;;14.10;2.75;;;8.80;99.90;;;;;;4941451;29;20401;-39
2023/03/04 11:54:15;;;;;;;10.88;2.85;;;9.00;99.90;;;;;;5024762;28;20123;-38
2023/03/04 11:56:50;;;;;;;14.98;3.17;;;9.10;99.90;;;;;;5018921;28;20041;-38
2023/03/04 11:59:27;;;;;;;13.38;2.83;;;9.30;99.90;;;;;;5033179;28;20041;-38
2023/03/04 12:02:14;;;;;;;12.02;2.70;;;9.30;99.90;;;;;;5030545;28;20045;-38
2023/03/04 12:05:00;;;;;;;16.42;3.60;;;9.30;99.90;;;;;;5030420;28;20046;-37
2023/03/04 12:07:44;;;;;;;11.45;2.67;;;9.20;99.90;;;;;;5029263;28;20068;-39
2023/03/04 12:10:15;;;;;;;10.60;2.60;;;9.10;99.90;;;;;;5021175;28;20116;-37
2023/03/04 12:12:50;;;;;;;10.38;3.00;;;9.00;99.90;;;;;;5028608;28;20033;-37
2023/03/04 12:15:32;;;;;;;11.88;2.60;;;9.00;99.90;;;;;;5022716;28;20037;-38
2023/03/04 12:18:04;;;;;;;17.52;3.60;;;8.90;99.90;;;;;;5027235;28;20538;-38
2023/03/04 12:21:04;;;;;;;7.75;2.60;;;8.90;99.90;;;;;;5027070;28;20045;-37
2023/03/04 12:23:42;;;;;;;9.88;1.95;;;8.90;99.90;;;;;;5026847;28;20172;-38
2023/03/04 12:26:38;;;;;;;9.05;1.90;;;8.90;99.90;;;;;;5027747;28;20163;-38
2023/03/04 12:29:25;;;;;;;14.10;2.63;;;9.10;99.90;;;;;;5023256;28;20061;-38
2023/03/04 12:32:17;;;;;;;9.70;2.30;;;9.20;99.90;;;;;;5025779;28;20044;-39
2023/03/04 12:34:51;;;;;;;10.95;2.53;;;9.30;99.90;;;;;;5009476;28;20049;-38
2023/03/04 12:37:23;;;;;;;12.68;2.35;;;9.20;99.90;;;;;;5018408;28;20073;-38
2023/03/04 12:40:19;;;;;;;10.43;2.47;;;9.10;99.90;;;;;;5025270;28;20311;-38
2023/03/04 12:42:57;;;;;;;10.27;2.38;;;9.20;99.90;;;;;;5011984;28;20057;-38
2023/03/04 12:45:31;;;;;;;15.68;2.65;;;9.20;99.90;;;;;;5025453;28;20479;-38
2023/03/04 12:48:05;;;;;;;10.25;1.90;;;9.40;99.90;;;;;;5017110;28;20047;-38
2023/03/04 12:51:00;;;;;;;7.88;2.25;;;10.70;99.90;;;;;;5022686;28;20033;-38
2023/03/04 12:53:34;;;;;;;7.57;2.17;;;11.60;99.90;;;;;;5019700;28;20502;-39
2023/03/04 12:56:03;;;;;;;4.00;1.45;;;11.90;99.90;;;;;;5021860;28;20381;-39
2023/03/04 12:58:31;;;;;;;8.13;2.15;;;11.90;99.90;;;;;;5027897;28;20073;-38
2023/03/04 13:01:11;;;;;;;4.18;1.40;;;11.70;99.90;;;;;;5012110;28;20100;-39
2023/03/04 13:04:14;;;;;;;11.02;3.03;;;11.10;99.90;;;;;;5018942;28;20127;-38